sensor_id;sensor_type;location;lat;lon;timestamp;P1;durP1;ratioP1;P2;durP2;ratioP2
79706;SDS011;69200;53.612;-2.416;2024-03-06T00:00:19;81.63;;;51.40;;
79706;SDS011;69200;53.612;-2.416;2024-03-06T00:02:44;77.47;;;49.00;;
79706;SDS011;69200;53.612;-2.416;2024-03-06T00:05:10;74.93;;;47.93;;
79706;SDS011;69200;53.612;-2.416;2024-03-06T00:07:35;73.40;;;47.70;;
79706;SDS011;69200;53.612;-2.416;2024-03-06T00:10:00;79.43;;;50.43;;
79706;SDS011;69200;53.612;-2.416;2024-03-06T00:12:26;174.83;;;97.33;;
79706;SDS011;69200;53.612;-2.416;2024-03-06T00:14:51;157.37;;;86.80;;
79706;SDS011;69200;53.612;-2.416;2024-03-06T00:17:16;156.10;;;88.83;;
79706;SDS011;69200;53.612;-2.416;2024-03-06T00:19:41;153.17;;;84.93;;
79706;SDS011;69200;53.612;-2.416;2024-03-06T00:22:08;77.60;;;49.50;;
79706;SDS011;69200;53.612;-2.416;2024-03-06T00:24:33;32.47;;;29.00;;
79706;SDS011;69200;53.612;-2.416;2024-03-06T00:26:58;16.57;;;14.13;;
79706;SDS011;69200;53.612;-2.416;2024-03-06T00:29:23;24.33;;;13.17;;
79706;SDS011;69200;53.612;-2.416;2024-03-06T00:31:49;22.70;;;18.43;;
79706;SDS011;69200;53.612;-2.416;2024-03-06T00:34:14;26.33;;;21.90;;
79706;SDS011;69200;53.612;-2.416;2024-03-06T00:36:40;17.48;;;15.52;;
79706;SDS011;69200;53.612;-2.416;2024-03-06T00:39:05;23.08;;;20.70;;
79706;SDS011;69200;53.612;-2.416;2024-03-06T00:41:32;13.40;;;7.30;;
79706;SDS011;69200;53.612;-2.416;2024-03-06T00:43:59;24.83;;;22.25;;
79706;SDS011;69200;53.612;-2.416;2024-03-06T00:46:24;21.23;;;18.93;;
79706;SDS011;69200;53.612;-2.416;2024-03-06T00:48:49;43.03;;;35.13;;
79706;SDS011;69200;53.612;-2.416;2024-03-06T00:51:15;48.10;;;38.47;;
79706;SDS011;69200;53.612;-2.416;2024-03-06T00:53:40;38.10;;;30.40;;
79706;SDS011;69200;53.612;-2.416;2024-03-06T00:56:05;39.37;;;33.97;;
79706;SDS011;69200;53.612;-2.416;2024-03-06T00:58:31;100.93;;;61.72;;
79706;SDS011;69200;53.612;-2.416;2024-03-06T01:00:56;81.20;;;50.87;;
79706;SDS011;69200;53.612;-2.416;2024-03-06T01:03:23;61.28;;;44.90;;
79706;SDS011;69200;53.612;-2.416;2024-03-06T01:05:48;48.23;;;38.50;;
79706;SDS011;69200;53.612;-2.416;2024-03-06T01:08:13;51.60;;;38.10;;
79706;SDS011;69200;53.612;-2.416;2024-03-06T01:10:40;36.47;;;28.45;;
79706;SDS011;69200;53.612;-2.416;2024-03-06T01:13:05;17.20;;;7.17;;
79706;SDS011;69200;53.612;-2.416;2024-03-06T01:15:31;17.75;;;10.18;;
79706;SDS011;69200;53.612;-2.416;2024-03-06T01:17:56;19.13;;;10.73;;
79706;SDS011;69200;53.612;-2.416;2024-03-06T01:20:22;9.95;;;3.90;;
79706;SDS011;69200;53.612;-2.416;2024-03-06T01:22:48;11.00;;;3.38;;
79706;SDS011;69200;53.612;-2.416;2024-03-06T01:25:13;22.58;;;16.25;;
79706;SDS011;69200;53.612;-2.416;2024-03-06T01:27:38;26.87;;;19.87;;
79706;SDS011;69200;53.612;-2.416;2024-03-06T01:30:03;10.57;;;3.93;;
79706;SDS011;69200;53.612;-2.416;2024-03-06T01:32:29;15.07;;;4.82;;
79706;SDS011;69200;53.612;-2.416;2024-03-06T01:34:55;15.90;;;4.40;;
79706;SDS011;69200;53.612;-2.416;2024-03-06T01:37:20;46.83;;;27.20;;
79706;SDS011;69200;53.612;-2.416;2024-03-06T01:39:45;79.87;;;51.43;;
79706;SDS011;69200;53.612;-2.416;2024-03-06T01:42:10;111.80;;;64.10;;
79706;SDS011;69200;53.612;-2.416;2024-03-06T01:44:36;75.60;;;52.43;;
79706;SDS011;69200;53.612;-2.416;2024-03-06T01:47:01;126.80;;;76.43;;
79706;SDS011;69200;53.612;-2.416;2024-03-06T01:49:26;140.03;;;81.50;;
79706;SDS011;69200;53.612;-2.416;2024-03-06T01:51:53;151.63;;;87.88;;
79706;SDS011;69200;53.612;-2.416;2024-03-06T01:54:19;109.97;;;66.10;;
79706;SDS011;69200;53.612;-2.416;2024-03-06T01:56:45;84.05;;;54.50;;
79706;SDS011;69200;53.612;-2.416;2024-03-06T01:59:13;84.40;;;53.53;;
79706;SDS011;69200;53.612;-2.416;2024-03-06T02:01:40;85.18;;;54.17;;
79706;SDS011;69200;53.612;-2.416;2024-03-06T02:04:06;67.13;;;47.17;;
79706;SDS011;69200;53.612;-2.416;2024-03-06T02:06:34;61.17;;;43.00;;
79706;SDS011;69200;53.612;-2.416;2024-03-06T02:09:00;54.38;;;40.20;;
79706;SDS011;69200;53.612;-2.416;2024-03-06T02:11:25;63.93;;;43.10;;
79706;SDS011;69200;53.612;-2.416;2024-03-06T02:13:50;59.67;;;42.97;;
79706;SDS011;69200;53.612;-2.416;2024-03-06T02:16:15;61.70;;;44.08;;
79706;SDS011;69200;53.612;-2.416;2024-03-06T02:18:53;58.17;;;45.13;;
79706;SDS011;69200;53.612;-2.416;2024-03-06T02:21:19;89.20;;;56.33;;
79706;SDS011;69200;53.612;-2.416;2024-03-06T02:23:44;90.75;;;56.38;;
79706;SDS011;69200;53.612;-2.416;2024-03-06T02:26:10;65.07;;;45.60;;
79706;SDS011;69200;53.612;-2.416;2024-03-06T02:28:35;53.65;;;40.45;;
79706;SDS011;69200;53.612;-2.416;2024-03-06T02:31:00;61.87;;;42.07;;
79706;SDS011;69200;53.612;-2.416;2024-03-06T02:33:27;46.47;;;35.88;;
79706;SDS011;69200;53.612;-2.416;2024-03-06T02:35:52;50.37;;;38.63;;
79706;SDS011;69200;53.612;-2.416;2024-03-06T02:38:17;90.83;;;58.80;;
79706;SDS011;69200;53.612;-2.416;2024-03-06T02:40:43;100.70;;;63.67;;
79706;SDS011;69200;53.612;-2.416;2024-03-06T02:43:09;122.32;;;71.72;;
79706;SDS011;69200;53.612;-2.416;2024-03-06T02:45:34;135.40;;;79.30;;
79706;SDS011;69200;53.612;-2.416;2024-03-06T02:47:59;104.20;;;61.57;;
79706;SDS011;69200;53.612;-2.416;2024-03-06T02:50:25;108.03;;;63.63;;
79706;SDS011;69200;53.612;-2.416;2024-03-06T02:52:50;82.77;;;51.97;;
79706;SDS011;69200;53.612;-2.416;2024-03-06T02:55:16;81.75;;;52.42;;
79706;SDS011;69200;53.612;-2.416;2024-03-06T02:57:42;81.20;;;53.28;;
79706;SDS011;69200;53.612;-2.416;2024-03-06T03:00:07;134.40;;;77.00;;
79706;SDS011;69200;53.612;-2.416;2024-03-06T03:02:38;116.47;;;67.05;;
79706;SDS011;69200;53.612;-2.416;2024-03-06T03:05:03;135.98;;;77.13;;
79706;SDS011;69200;53.612;-2.416;2024-03-06T03:07:29;128.63;;;73.57;;
79706;SDS011;69200;53.612;-2.416;2024-03-06T03:09:55;146.00;;;83.80;;
79706;SDS011;69200;53.612;-2.416;2024-03-06T03:12:20;188.27;;;108.27;;
79706;SDS011;69200;53.612;-2.416;2024-03-06T03:14:45;151.17;;;90.00;;
79706;SDS011;69200;53.612;-2.416;2024-03-06T03:17:10;158.80;;;92.97;;
79706;SDS011;69200;53.612;-2.416;2024-03-06T03:19:36;115.10;;;69.03;;
79706;SDS011;69200;53.612;-2.416;2024-03-06T03:22:01;134.93;;;79.32;;
79706;SDS011;69200;53.612;-2.416;2024-03-06T03:24:29;90.45;;;56.80;;
79706;SDS011;69200;53.612;-2.416;2024-03-06T03:26:54;78.78;;;51.30;;
79706;SDS011;69200;53.612;-2.416;2024-03-06T03:29:19;126.13;;;73.70;;
79706;SDS011;69200;53.612;-2.416;2024-03-06T03:31:45;133.40;;;78.53;;
79706;SDS011;69200;53.612;-2.416;2024-03-06T03:34:11;169.57;;;102.60;;
79706;SDS011;69200;53.612;-2.416;2024-03-06T03:36:43;160.87;;;95.50;;
79706;SDS011;69200;53.612;-2.416;2024-03-06T03:39:10;175.02;;;105.25;;
79706;SDS011;69200;53.612;-2.416;2024-03-06T03:41:47;198.07;;;115.95;;
79706;SDS011;69200;53.612;-2.416;2024-03-06T03:44:16;208.27;;;116.35;;
79706;SDS011;69200;53.612;-2.416;2024-03-06T03:46:41;229.68;;;131.25;;
79706;SDS011;69200;53.612;-2.416;2024-03-06T03:49:07;323.40;;;179.32;;
79706;SDS011;69200;53.612;-2.416;2024-03-06T03:51:33;295.42;;;165.77;;
79706;SDS011;69200;53.612;-2.416;2024-03-06T03:53:59;268.17;;;144.70;;
79706;SDS011;69200;53.612;-2.416;2024-03-06T03:56:24;252.27;;;134.77;;
79706;SDS011;69200;53.612;-2.416;2024-03-06T03:58:49;241.40;;;133.80;;
79706;SDS011;69200;53.612;-2.416;2024-03-06T04:01:14;258.20;;;140.63;;
79706;SDS011;69200;53.612;-2.416;2024-03-06T04:03:40;231.13;;;121.17;;
79706;SDS011;69200;53.612;-2.416;2024-03-06T04:06:07;199.02;;;110.35;;
79706;SDS011;69200;53.612;-2.416;2024-03-06T04:08:32;238.85;;;130.82;;
79706;SDS011;69200;53.612;-2.416;2024-03-06T04:10:58;251.37;;;139.90;;
79706;SDS011;69200;53.612;-2.416;2024-03-06T04:13:23;270.50;;;146.83;;
79706;SDS011;69200;53.612;-2.416;2024-03-06T04:15:48;253.40;;;148.87;;
79706;SDS011;69200;53.612;-2.416;2024-03-06T04:18:13;246.70;;;133.53;;
79706;SDS011;69200;53.612;-2.416;2024-03-06T04:20:39;245.43;;;136.73;;
79706;SDS011;69200;53.612;-2.416;2024-03-06T04:23:05;244.50;;;135.88;;
79706;SDS011;69200;53.612;-2.416;2024-03-06T04:25:30;210.20;;;117.75;;
79706;SDS011;69200;53.612;-2.416;2024-03-06T04:27:55;191.93;;;103.77;;
79706;SDS011;69200;53.612;-2.416;2024-03-06T04:30:21;265.35;;;148.50;;
79706;SDS011;69200;53.612;-2.416;2024-03-06T04:32:46;206.10;;;115.97;;
79706;SDS011;69200;53.612;-2.416;2024-03-06T04:35:11;318.92;;;192.10;;
79706;SDS011;69200;53.612;-2.416;2024-03-06T04:37:36;350.60;;;214.80;;
79706;SDS011;69200;53.612;-2.416;2024-03-06T04:40:02;298.47;;;179.17;;
79706;SDS011;69200;53.612;-2.416;2024-03-06T04:42:28;205.50;;;115.68;;
79706;SDS011;69200;53.612;-2.416;2024-03-06T04:44:53;180.63;;;97.93;;
79706;SDS011;69200;53.612;-2.416;2024-03-06T04:47:18;190.57;;;104.07;;
79706;SDS011;69200;53.612;-2.416;2024-03-06T04:49:44;194.27;;;107.70;;
79706;SDS011;69200;53.612;-2.416;2024-03-06T04:52:09;203.30;;;112.30;;
79706;SDS011;69200;53.612;-2.416;2024-03-06T04:54:34;198.37;;;109.83;;
79706;SDS011;69200;53.612;-2.416;2024-03-06T04:57:00;258.50;;;143.07;;
79706;SDS011;69200;53.612;-2.416;2024-03-06T04:59:25;260.00;;;142.30;;
79706;SDS011;69200;53.612;-2.416;2024-03-06T05:01:51;240.52;;;131.30;;
79706;SDS011;69200;53.612;-2.416;2024-03-06T05:04:16;237.48;;;131.90;;
79706;SDS011;69200;53.612;-2.416;2024-03-06T05:06:42;237.80;;;131.43;;
79706;SDS011;69200;53.612;-2.416;2024-03-06T05:09:07;215.20;;;117.00;;
79706;SDS011;69200;53.612;-2.416;2024-03-06T05:11:36;242.82;;;130.85;;
79706;SDS011;69200;53.612;-2.416;2024-03-06T05:14:02;185.65;;;102.72;;
79706;SDS011;69200;53.612;-2.416;2024-03-06T05:16:28;195.65;;;111.00;;
79706;SDS011;69200;53.612;-2.416;2024-03-06T05:18:53;224.27;;;126.57;;
79706;SDS011;69200;53.612;-2.416;2024-03-06T05:21:19;212.83;;;117.37;;
79706;SDS011;69200;53.612;-2.416;2024-03-06T05:23:44;148.45;;;82.05;;
79706;SDS011;69200;53.612;-2.416;2024-03-06T05:26:09;138.03;;;76.87;;
79706;SDS011;69200;53.612;-2.416;2024-03-06T05:28:35;137.93;;;78.40;;
79706;SDS011;69200;53.612;-2.416;2024-03-06T05:31:01;156.25;;;89.95;;
79706;SDS011;69200;53.612;-2.416;2024-03-06T05:33:38;152.57;;;89.10;;
79706;SDS011;69200;53.612;-2.416;2024-03-06T05:36:04;150.20;;;87.13;;
79706;SDS011;69200;53.612;-2.416;2024-03-06T05:38:29;161.57;;;93.00;;
79706;SDS011;69200;53.612;-2.416;2024-03-06T05:40:55;174.35;;;100.68;;
79706;SDS011;69200;53.612;-2.416;2024-03-06T05:43:20;185.40;;;107.35;;
79706;SDS011;69200;53.612;-2.416;2024-03-06T05:45:46;159.70;;;90.60;;
79706;SDS011;69200;53.612;-2.416;2024-03-06T05:48:11;142.87;;;78.50;;
79706;SDS011;69200;53.612;-2.416;2024-03-06T05:50:36;140.27;;;81.70;;
79706;SDS011;69200;53.612;-2.416;2024-03-06T05:53:02;134.70;;;79.87;;
79706;SDS011;69200;53.612;-2.416;2024-03-06T05:55:27;114.60;;;67.73;;
79706;SDS011;69200;53.612;-2.416;2024-03-06T05:57:52;100.33;;;60.90;;
79706;SDS011;69200;53.612;-2.416;2024-03-06T06:00:17;171.90;;;93.27;;
79706;SDS011;69200;53.612;-2.416;2024-03-06T06:02:43;169.25;;;91.05;;
79706;SDS011;69200;53.612;-2.416;2024-03-06T06:05:10;179.52;;;95.65;;
79706;SDS011;69200;53.612;-2.416;2024-03-06T06:07:35;176.17;;;95.03;;
79706;SDS011;69200;53.612;-2.416;2024-03-06T06:10:00;111.03;;;62.67;;
79706;SDS011;69200;53.612;-2.416;2024-03-06T06:12:27;173.10;;;101.53;;
79706;SDS011;69200;53.612;-2.416;2024-03-06T06:14:55;246.20;;;138.05;;
79706;SDS011;69200;53.612;-2.416;2024-03-06T06:17:20;232.33;;;130.20;;
79706;SDS011;69200;53.612;-2.416;2024-03-06T06:19:47;227.63;;;128.98;;
79706;SDS011;69200;53.612;-2.416;2024-03-06T06:22:12;208.30;;;117.47;;
79706;SDS011;69200;53.612;-2.416;2024-03-06T06:24:38;225.60;;;127.37;;
79706;SDS011;69200;53.612;-2.416;2024-03-06T06:27:03;215.48;;;116.45;;
79706;SDS011;69200;53.612;-2.416;2024-03-06T06:29:29;214.00;;;114.95;;
79706;SDS011;69200;53.612;-2.416;2024-03-06T06:31:54;214.90;;;115.03;;
79706;SDS011;69200;53.612;-2.416;2024-03-06T06:34:22;205.57;;;110.45;;
79706;SDS011;69200;53.612;-2.416;2024-03-06T06:36:47;205.18;;;109.93;;
79706;SDS011;69200;53.612;-2.416;2024-03-06T06:39:13;214.70;;;115.47;;
79706;SDS011;69200;53.612;-2.416;2024-03-06T06:41:38;225.27;;;121.73;;
79706;SDS011;69200;53.612;-2.416;2024-03-06T06:44:03;216.37;;;121.00;;
79706;SDS011;69200;53.612;-2.416;2024-03-06T06:46:28;221.10;;;124.90;;
79706;SDS011;69200;53.612;-2.416;2024-03-06T06:48:54;200.60;;;106.95;;
79706;SDS011;69200;53.612;-2.416;2024-03-06T06:51:19;241.00;;;138.60;;
79706;SDS011;69200;53.612;-2.416;2024-03-06T06:53:45;182.63;;;96.20;;
79706;SDS011;69200;53.612;-2.416;2024-03-06T06:56:11;183.75;;;98.93;;
79706;SDS011;69200;53.612;-2.416;2024-03-06T06:58:36;192.83;;;101.87;;
79706;SDS011;69200;53.612;-2.416;2024-03-06T07:01:01;211.20;;;112.47;;
79706;SDS011;69200;53.612;-2.416;2024-03-06T07:03:28;234.25;;;125.68;;
79706;SDS011;69200;53.612;-2.416;2024-03-06T07:05:55;233.57;;;127.78;;
79706;SDS011;69200;53.612;-2.416;2024-03-06T07:08:20;248.85;;;139.43;;
79706;SDS011;69200;53.612;-2.416;2024-03-06T07:10:46;234.27;;;126.30;;
79706;SDS011;69200;53.612;-2.416;2024-03-06T07:13:11;197.70;;;104.33;;
79706;SDS011;69200;53.612;-2.416;2024-03-06T07:15:36;187.13;;;98.43;;
79706;SDS011;69200;53.612;-2.416;2024-03-06T07:18:01;201.93;;;105.93;;
79706;SDS011;69200;53.612;-2.416;2024-03-06T07:20:27;203.40;;;108.53;;
79706;SDS011;69200;53.612;-2.416;2024-03-06T07:22:52;207.30;;;106.65;;
79706;SDS011;69200;53.612;-2.416;2024-03-06T07:25:17;220.70;;;111.93;;
79706;SDS011;69200;53.612;-2.416;2024-03-06T07:27:42;220.50;;;112.20;;
79706;SDS011;69200;53.612;-2.416;2024-03-06T07:30:08;234.63;;;118.37;;
79706;SDS011;69200;53.612;-2.416;2024-03-06T07:32:34;176.57;;;90.25;;
79706;SDS011;69200;53.612;-2.416;2024-03-06T07:34:59;225.67;;;112.53;;
79706;SDS011;69200;53.612;-2.416;2024-03-06T07:37:24;240.93;;;117.00;;
79706;SDS011;69200;53.612;-2.416;2024-03-06T07:39:50;229.93;;;111.13;;
79706;SDS011;69200;53.612;-2.416;2024-03-06T07:42:15;193.40;;;96.87;;
79706;SDS011;69200;53.612;-2.416;2024-03-06T07:44:40;134.52;;;69.22;;
79706;SDS011;69200;53.612;-2.416;2024-03-06T07:47:06;32.73;;;13.97;;
79706;SDS011;69200;53.612;-2.416;2024-03-06T07:49:32;21.10;;;8.75;;
79706;SDS011;69200;53.612;-2.416;2024-03-06T07:51:58;24.90;;;9.77;;
79706;SDS011;69200;53.612;-2.416;2024-03-06T07:54:24;24.33;;;9.23;;
79706;SDS011;69200;53.612;-2.416;2024-03-06T07:56:49;21.33;;;8.90;;
79706;SDS011;69200;53.612;-2.416;2024-03-06T07:59:14;25.60;;;11.37;;
79706;SDS011;69200;53.612;-2.416;2024-03-06T08:01:41;26.35;;;10.98;;
79706;SDS011;69200;53.612;-2.416;2024-03-06T08:04:07;24.73;;;9.57;;
79706;SDS011;69200;53.612;-2.416;2024-03-06T08:06:32;24.10;;;10.00;;
79706;SDS011;69200;53.612;-2.416;2024-03-06T08:08:58;22.13;;;9.57;;
79706;SDS011;69200;53.612;-2.416;2024-03-06T08:11:24;26.00;;;10.27;;
79706;SDS011;69200;53.612;-2.416;2024-03-06T08:13:49;24.45;;;9.57;;
79706;SDS011;69200;53.612;-2.416;2024-03-06T08:16:15;27.15;;;11.40;;
79706;SDS011;69200;53.612;-2.416;2024-03-06T08:18:40;21.83;;;8.73;;
79706;SDS011;69200;53.612;-2.416;2024-03-06T08:21:06;23.27;;;9.03;;
79706;SDS011;69200;53.612;-2.416;2024-03-06T08:23:31;26.27;;;10.93;;
79706;SDS011;69200;53.612;-2.416;2024-03-06T08:25:58;27.17;;;10.07;;
79706;SDS011;69200;53.612;-2.416;2024-03-06T08:28:24;23.17;;;9.98;;
79706;SDS011;69200;53.612;-2.416;2024-03-06T08:30:50;23.85;;;9.43;;
79706;SDS011;69200;53.612;-2.416;2024-03-06T08:33:17;27.60;;;9.85;;
79706;SDS011;69200;53.612;-2.416;2024-03-06T08:35:42;23.25;;;8.70;;
79706;SDS011;69200;53.612;-2.416;2024-03-06T08:38:07;23.17;;;9.93;;
79706;SDS011;69200;53.612;-2.416;2024-03-06T08:40:34;20.75;;;8.23;;
79706;SDS011;69200;53.612;-2.416;2024-03-06T08:42:59;24.25;;;10.35;;
79706;SDS011;69200;53.612;-2.416;2024-03-06T08:45:24;29.27;;;11.27;;
79706;SDS011;69200;53.612;-2.416;2024-03-06T08:47:50;24.33;;;9.00;;
79706;SDS011;69200;53.612;-2.416;2024-03-06T08:50:15;24.63;;;9.70;;
79706;SDS011;69200;53.612;-2.416;2024-03-06T08:52:41;25.75;;;9.93;;
79706;SDS011;69200;53.612;-2.416;2024-03-06T08:55:06;26.70;;;11.33;;
79706;SDS011;69200;53.612;-2.416;2024-03-06T08:57:32;29.00;;;10.73;;
79706;SDS011;69200;53.612;-2.416;2024-03-06T08:59:58;33.22;;;11.10;;
79706;SDS011;69200;53.612;-2.416;2024-03-06T09:02:23;26.42;;;9.75;;
79706;SDS011;69200;53.612;-2.416;2024-03-06T09:04:48;31.07;;;10.97;;
79706;SDS011;69200;53.612;-2.416;2024-03-06T09:07:16;30.27;;;11.20;;
79706;SDS011;69200;53.612;-2.416;2024-03-06T09:09:41;28.47;;;10.50;;
79706;SDS011;69200;53.612;-2.416;2024-03-06T09:12:07;110.20;;;49.73;;
79706;SDS011;69200;53.612;-2.416;2024-03-06T09:14:35;253.63;;;115.38;;
79706;SDS011;69200;53.612;-2.416;2024-03-06T09:17:01;27.25;;;9.90;;
79706;SDS011;69200;53.612;-2.416;2024-03-06T09:19:26;200.35;;;98.63;;
79706;SDS011;69200;53.612;-2.416;2024-03-06T09:21:51;218.13;;;104.32;;
79706;SDS011;69200;53.612;-2.416;2024-03-06T09:24:17;272.90;;;127.32;;
79706;SDS011;69200;53.612;-2.416;2024-03-06T09:26:43;325.13;;;154.63;;
79706;SDS011;69200;53.612;-2.416;2024-03-06T09:29:08;91.93;;;39.70;;
79706;SDS011;69200;53.612;-2.416;2024-03-06T09:31:33;28.98;;;9.43;;
79706;SDS011;69200;53.612;-2.416;2024-03-06T09:33:59;29.17;;;9.43;;
79706;SDS011;69200;53.612;-2.416;2024-03-06T09:36:24;28.43;;;10.57;;
79706;SDS011;69200;53.612;-2.416;2024-03-06T09:38:50;106.90;;;56.25;;
79706;SDS011;69200;53.612;-2.416;2024-03-06T09:41:16;395.75;;;183.77;;
79706;SDS011;69200;53.612;-2.416;2024-03-06T09:43:43;396.50;;;181.63;;
79706;SDS011;69200;53.612;-2.416;2024-03-06T09:46:08;386.00;;;176.52;;
79706;SDS011;69200;53.612;-2.416;2024-03-06T09:48:33;386.57;;;178.63;;
79706;SDS011;69200;53.612;-2.416;2024-03-06T09:51:00;422.88;;;195.90;;
79706;SDS011;69200;53.612;-2.416;2024-03-06T09:53:26;440.00;;;203.18;;
79706;SDS011;69200;53.612;-2.416;2024-03-06T09:55:51;435.30;;;198.48;;
79706;SDS011;69200;53.612;-2.416;2024-03-06T09:58:17;445.77;;;207.73;;
79706;SDS011;69200;53.612;-2.416;2024-03-06T10:00:42;456.63;;;213.18;;
79706;SDS011;69200;53.612;-2.416;2024-03-06T10:03:09;448.10;;;205.02;;
79706;SDS011;69200;53.612;-2.416;2024-03-06T10:05:34;455.77;;;208.10;;
79706;SDS011;69200;53.612;-2.416;2024-03-06T10:08:03;451.27;;;207.60;;
79706;SDS011;69200;53.612;-2.416;2024-03-06T10:10:31;486.15;;;232.18;;
79706;SDS011;69200;53.612;-2.416;2024-03-06T10:12:56;473.75;;;226.52;;
79706;SDS011;69200;53.612;-2.416;2024-03-06T10:15:22;481.27;;;225.90;;
79706;SDS011;69200;53.612;-2.416;2024-03-06T10:17:48;462.95;;;216.55;;
79706;SDS011;69200;53.612;-2.416;2024-03-06T10:20:17;461.02;;;213.02;;
79706;SDS011;69200;53.612;-2.416;2024-03-06T10:22:48;417.35;;;191.00;;
79706;SDS011;69200;53.612;-2.416;2024-03-06T10:25:13;494.67;;;233.52;;
79706;SDS011;69200;53.612;-2.416;2024-03-06T10:27:39;487.73;;;233.47;;
79706;SDS011;69200;53.612;-2.416;2024-03-06T10:30:04;480.63;;;224.35;;
79706;SDS011;69200;53.612;-2.416;2024-03-06T10:32:31;489.83;;;230.55;;
79706;SDS011;69200;53.612;-2.416;2024-03-06T10:34:56;485.30;;;226.77;;
79706;SDS011;69200;53.612;-2.416;2024-03-06T10:37:21;496.70;;;240.67;;
79706;SDS011;69200;53.612;-2.416;2024-03-06T10:39:47;499.30;;;242.13;;
79706;SDS011;69200;53.612;-2.416;2024-03-06T10:42:14;508.48;;;248.40;;
79706;SDS011;69200;53.612;-2.416;2024-03-06T10:44:41;487.87;;;229.77;;
79706;SDS011;69200;53.612;-2.416;2024-03-06T10:47:09;501.98;;;245.27;;
79706;SDS011;69200;53.612;-2.416;2024-03-06T10:49:34;518.40;;;262.95;;
79706;SDS011;69200;53.612;-2.416;2024-03-06T10:52:01;513.88;;;257.20;;
79706;SDS011;69200;53.612;-2.416;2024-03-06T10:54:26;504.50;;;252.48;;
79706;SDS011;69200;53.612;-2.416;2024-03-06T10:56:52;513.97;;;258.08;;
79706;SDS011;69200;53.612;-2.416;2024-03-06T10:59:18;477.10;;;226.43;;
79706;SDS011;69200;53.612;-2.416;2024-03-06T11:01:45;514.28;;;263.90;;
79706;SDS011;69200;53.612;-2.416;2024-03-06T11:04:11;543.53;;;279.55;;
79706;SDS011;69200;53.612;-2.416;2024-03-06T11:06:37;513.15;;;260.45;;
79706;SDS011;69200;53.612;-2.416;2024-03-06T11:09:03;491.55;;;239.60;;
79706;SDS011;69200;53.612;-2.416;2024-03-06T11:11:28;480.90;;;234.85;;
79706;SDS011;69200;53.612;-2.416;2024-03-06T11:13:55;466.88;;;223.75;;
79706;SDS011;69200;53.612;-2.416;2024-03-06T11:16:31;484.90;;;238.40;;
79706;SDS011;69200;53.612;-2.416;2024-03-06T11:19:08;457.90;;;218.02;;
79706;SDS011;69200;53.612;-2.416;2024-03-06T11:21:33;453.02;;;217.40;;
79706;SDS011;69200;53.612;-2.416;2024-03-06T11:26:36;422.83;;;199.75;;
79706;SDS011;69200;53.612;-2.416;2024-03-06T11:29:02;412.57;;;191.23;;
79706;SDS011;69200;53.612;-2.416;2024-03-06T11:31:27;416.70;;;194.67;;
79706;SDS011;69200;53.612;-2.416;2024-03-06T11:33:53;589.80;;;327.77;;
79706;SDS011;69200;53.612;-2.416;2024-03-06T11:36:25;452.58;;;206.02;;
79706;SDS011;69200;53.612;-2.416;2024-03-06T11:39:04;461.95;;;219.27;;
79706;SDS011;69200;53.612;-2.416;2024-03-06T11:41:31;445.80;;;208.65;;
79706;SDS011;69200;53.612;-2.416;2024-03-06T11:43:59;455.63;;;217.02;;
79706;SDS011;69200;53.612;-2.416;2024-03-06T11:46:44;443.00;;;205.02;;
79706;SDS011;69200;53.612;-2.416;2024-03-06T11:49:25;441.05;;;209.68;;
79706;SDS011;69200;53.612;-2.416;2024-03-06T11:51:54;445.20;;;209.30;;
79706;SDS011;69200;53.612;-2.416;2024-03-06T11:54:20;433.85;;;201.60;;
79706;SDS011;69200;53.612;-2.416;2024-03-06T11:56:49;440.48;;;202.90;;
79706;SDS011;69200;53.612;-2.416;2024-03-06T11:59:24;429.15;;;195.18;;
79706;SDS011;69200;53.612;-2.416;2024-03-06T12:01:50;439.80;;;204.20;;
79706;SDS011;69200;53.612;-2.416;2024-03-06T12:04:16;437.90;;;206.95;;
79706;SDS011;69200;53.612;-2.416;2024-03-06T12:06:41;435.67;;;201.47;;
79706;SDS011;69200;53.612;-2.416;2024-03-06T12:09:06;436.97;;;199.13;;
79706;SDS011;69200;53.612;-2.416;2024-03-06T12:11:36;429.33;;;196.60;;
79706;SDS011;69200;53.612;-2.416;2024-03-06T12:14:01;420.30;;;192.93;;
79706;SDS011;69200;53.612;-2.416;2024-03-06T12:16:26;390.97;;;177.43;;
79706;SDS011;69200;53.612;-2.416;2024-03-06T12:18:57;381.33;;;169.60;;
79706;SDS011;69200;53.612;-2.416;2024-03-06T12:21:32;371.92;;;167.32;;
79706;SDS011;69200;53.612;-2.416;2024-03-06T12:24:02;380.83;;;171.77;;
79706;SDS011;69200;53.612;-2.416;2024-03-06T12:26:28;398.98;;;185.05;;
79706;SDS011;69200;53.612;-2.416;2024-03-06T12:28:53;396.57;;;184.87;;
79706;SDS011;69200;53.612;-2.416;2024-03-06T12:31:28;395.20;;;182.13;;
79706;SDS011;69200;53.612;-2.416;2024-03-06T12:33:56;410.77;;;189.73;;
79706;SDS011;69200;53.612;-2.416;2024-03-06T12:36:24;395.75;;;181.57;;
79706;SDS011;69200;53.612;-2.416;2024-03-06T12:39:09;417.85;;;192.65;;
79706;SDS011;69200;53.612;-2.416;2024-03-06T12:41:40;417.35;;;193.85;;
79706;SDS011;69200;53.612;-2.416;2024-03-06T12:44:06;410.17;;;189.75;;
79706;SDS011;69200;53.612;-2.416;2024-03-06T12:46:34;380.08;;;174.13;;
79706;SDS011;69200;53.612;-2.416;2024-03-06T12:48:59;373.50;;;168.87;;
79706;SDS011;69200;53.612;-2.416;2024-03-06T12:51:24;380.50;;;171.50;;
79706;SDS011;69200;53.612;-2.416;2024-03-06T12:53:50;371.73;;;166.27;;
79706;SDS011;69200;53.612;-2.416;2024-03-06T12:56:16;366.58;;;164.05;;
79706;SDS011;69200;53.612;-2.416;2024-03-06T12:58:41;380.48;;;169.93;;
79706;SDS011;69200;53.612;-2.416;2024-03-06T13:01:07;384.00;;;171.47;;
79706;SDS011;69200;53.612;-2.416;2024-03-06T13:03:32;406.03;;;188.27;;
79706;SDS011;69200;53.612;-2.416;2024-03-06T13:05:57;408.97;;;188.57;;
79706;SDS011;69200;53.612;-2.416;2024-03-06T13:08:23;351.70;;;157.55;;
79706;SDS011;69200;53.612;-2.416;2024-03-06T13:10:48;320.27;;;145.83;;
79706;SDS011;69200;53.612;-2.416;2024-03-06T13:13:13;317.10;;;145.47;;
79706;SDS011;69200;53.612;-2.416;2024-03-06T13:15:38;331.63;;;151.83;;
79706;SDS011;69200;53.612;-2.416;2024-03-06T13:18:04;334.03;;;152.13;;
79706;SDS011;69200;53.612;-2.416;2024-03-06T13:20:29;326.83;;;148.02;;
79706;SDS011;69200;53.612;-2.416;2024-03-06T13:22:55;319.20;;;144.90;;
79706;SDS011;69200;53.612;-2.416;2024-03-06T13:25:20;325.50;;;149.65;;
79706;SDS011;69200;53.612;-2.416;2024-03-06T13:27:45;316.80;;;145.57;;
79706;SDS011;69200;53.612;-2.416;2024-03-06T13:30:11;324.30;;;150.17;;
79706;SDS011;69200;53.612;-2.416;2024-03-06T13:32:37;317.60;;;145.45;;
79706;SDS011;69200;53.612;-2.416;2024-03-06T13:35:02;315.00;;;142.03;;
79706;SDS011;69200;53.612;-2.416;2024-03-06T13:37:28;331.88;;;147.73;;
79706;SDS011;69200;53.612;-2.416;2024-03-06T13:39:53;330.40;;;148.30;;
79706;SDS011;69200;53.612;-2.416;2024-03-06T13:42:23;324.50;;;144.82;;
79706;SDS011;69200;53.612;-2.416;2024-03-06T13:44:48;304.33;;;135.57;;
79706;SDS011;69200;53.612;-2.416;2024-03-06T13:47:14;297.80;;;133.60;;
79706;SDS011;69200;53.612;-2.416;2024-03-06T13:49:42;291.63;;;129.73;;